Time;durP1;ratioP1;P1;durP2;ratioP2;P2;SDS_P1;SDS_P2;PMS_P1;PMS_P2;Temp;Humidity;BMP_temperature;BMP_pressure;BME280_temperature;BME280_humidity;BME280_pressure;Samples;Min_cycle;Max_cycle;Signal;HPM_P1;HPM_P2
2022/02/05 00:01:13;;;;;;;2.60;0.40;;;5.50;98.80;;;;;;4960029;28;20465;-77
2022/02/05 00:03:43;;;;;;;5.07;0.70;;;5.50;98.40;;;;;;4958880;28;20146;-74
2022/02/05 00:06:11;;;;;;;1.70;0.60;;;5.50;98.80;;;;;;4975963;28;20388;-73
2022/02/05 00:08:49;;;;;;;0.60;0.40;;;5.50;98.90;;;;;;4959201;28;20134;-73
2022/02/05 00:40:55;;;;;;;2.10;0.40;;;5.20;99.90;;;;;;4976069;28;20023;-74
2022/02/05 00:43:21;;;;;;;;;;;5.20;99.90;;;;;;4959360;28;20030;-74
2022/02/05 00:45:52;;;;;;;1.77;0.50;;;5.10;99.90;;;;;;4976046;28;19906;-73
2022/02/05 00:48:19;;;;;;;3.23;0.30;;;5.10;99.90;;;;;;4958054;28;20070;-74
2022/02/05 00:50:54;;;;;;;1.53;0.43;;;5.10;99.90;;;;;;4958563;28;20789;-74
2022/02/05 00:53:29;;;;;;;1.27;0.40;;;5.00;99.90;;;;;;4958467;28;20023;-74
2022/02/05 00:56:04;;;;;;;0.93;0.30;;;5.00;99.90;;;;;;4958656;28;20527;-76
2022/02/05 00:58:29;;;;;;;1.90;0.37;;;5.00;99.90;;;;;;4950898;28;20027;-74
2022/02/05 01:00:55;;;;;;;2.80;0.50;;;5.00;99.90;;;;;;4975456;28;20033;-78
2022/02/05 01:03:21;;;;;;;3.60;0.60;;;4.90;99.90;;;;;;4957520;28;20484;-74
2022/02/05 01:05:50;;;;;;;4.70;0.60;;;4.90;99.90;;;;;;4957949;28;20027;-74
2022/02/05 01:08:16;;;;;;;0.73;0.50;;;4.90;99.90;;;;;;4957875;28;20245;-74
2022/02/05 01:10:46;;;;;;;1.60;0.47;;;4.90;99.90;;;;;;4975090;28;20483;-74
2022/02/05 01:13:13;;;;;;;4.93;0.60;;;4.80;99.90;;;;;;4956771;28;20027;-74
2022/02/05 01:15:54;;;;;;;1.80;0.50;;;4.80;99.90;;;;;;4958449;28;20094;-74
2022/02/05 01:18:22;;;;;;;3.38;0.63;;;4.80;99.90;;;;;;4975204;28;20030;-74
2022/02/05 01:23:21;;;;;;;1.73;0.67;;;4.70;99.90;;;;;;4975068;28;20031;-74
2022/02/05 01:25:55;;;;;;;2.23;0.60;;;4.60;99.90;;;;;;4974159;28;20110;-73
2022/02/05 01:28:27;;;;;;;2.87;0.80;;;4.60;99.90;;;;;;4957295;28;20022;-74
2022/02/05 01:30:55;;;;;;;;;;;4.60;99.90;;;;;;4958102;28;20468;-74
2022/02/05 01:52:45;;;;;;;1.97;1.20;;;4.20;99.90;;;;;;4974714;28;20062;-74
2022/02/05 01:57:53;;;;;;;4.40;1.30;;;4.20;99.90;;;;;;4975021;28;20117;-73
2022/02/05 02:06:09;;;;;;;2.87;1.10;;;4.20;99.90;;;;;;4974852;28;20097;-74
2022/02/05 02:11:35;;;;;;;1.97;0.87;;;4.20;99.90;;;;;;4974516;28;20037;-74
2022/02/05 02:14:25;;;;;;;;;;;4.20;99.90;;;;;;4957419;28;20460;-77
2022/02/05 02:22:21;;;;;;;3.03;1.10;;;4.10;99.90;;;;;;4973247;28;20054;-74
2022/02/05 02:32:17;;;;;;;6.00;1.80;;;4.00;99.90;;;;;;4974210;28;20035;-74
2022/02/05 02:34:48;;;;;;;2.73;1.00;;;4.00;99.90;;;;;;4974289;28;20034;-74
2022/02/05 02:37:18;;;;;;;3.37;1.07;;;4.00;99.90;;;;;;4956659;28;20078;-74
2022/02/05 02:42:16;;;;;;;1.52;1.10;;;3.90;99.90;;;;;;4973434;28;20026;-74
2022/02/05 02:44:42;;;;;;;2.30;1.30;;;3.90;99.90;;;;;;4956939;28;20058;-73
2022/02/05 02:47:07;;;;;;;4.77;1.27;;;3.80;99.90;;;;;;4973482;28;20472;-74
2022/02/05 02:49:46;;;;;;;6.53;1.33;;;3.80;99.90;;;;;;4956761;28;20065;-74
2022/02/05 02:57:54;;;;;;;3.17;1.67;;;3.80;99.90;;;;;;4974342;28;20045;-74
2022/02/05 03:00:20;;;;;;;3.33;1.30;;;3.70;99.90;;;;;;4956211;28;20039;-73
2022/02/05 03:02:45;;;;;;;3.93;1.40;;;3.80;99.90;;;;;;4955940;28;20057;-74
2022/02/05 03:05:11;;;;;;;2.87;1.57;;;3.70;99.90;;;;;;4972842;28;20026;-73
2022/02/05 03:07:37;;;;;;;2.70;1.40;;;3.70;99.90;;;;;;4956657;28;20376;-74
2022/02/05 03:10:03;;;;;;;3.27;1.33;;;3.70;99.90;;;;;;4956563;28;20031;-76
2022/02/05 03:12:29;;;;;;;4.43;1.23;;;3.70;99.90;;;;;;4973749;28;20027;-73
2022/02/05 03:14:55;;;;;;;5.20;1.80;;;3.60;99.90;;;;;;4956710;28;20031;-73
2022/02/05 03:17:23;;;;;;;3.90;1.50;;;3.60;99.90;;;;;;4955982;28;20034;-74
2022/02/05 03:19:51;;;;;;;6.67;1.63;;;3.60;99.90;;;;;;4956569;28;20361;-73
2022/02/05 03:22:19;;;;;;;6.67;1.47;;;3.50;99.90;;;;;;4956045;28;20027;-73
2022/02/05 03:24:45;;;;;;;3.87;2.00;;;3.50;99.90;;;;;;4956691;28;20037;-73
2022/02/05 03:27:13;;;;;;;3.67;1.50;;;3.50;99.90;;;;;;4956202;28;20027;-74
2022/02/05 03:29:43;;;;;;;2.60;1.10;;;3.50;99.90;;;;;;4956228;28;20065;-74
2022/02/05 03:32:09;;;;;;;2.47;1.53;;;3.50;99.90;;;;;;4973333;28;20026;-74
2022/02/05 03:34:35;;;;;;;2.97;1.53;;;3.50;99.90;;;;;;4975991;28;20118;-74
2022/02/05 03:37:01;;;;;;;6.33;1.80;;;3.60;99.90;;;;;;4960222;28;20026;-73
2022/02/05 03:39:27;;;;;;;3.20;1.20;;;3.60;99.90;;;;;;4976871;28;20034;-74
2022/02/05 03:41:53;;;;;;;3.47;1.47;;;3.50;99.90;;;;;;4960044;28;20058;-74
2022/02/05 03:44:18;;;;;;;4.20;1.37;;;3.50;99.90;;;;;;4959012;28;20065;-74
2022/02/05 03:46:44;;;;;;;2.87;1.07;;;3.50;99.90;;;;;;4959594;28;20066;-73
2022/02/05 03:49:14;;;;;;;4.40;1.40;;;3.40;99.90;;;;;;4976413;28;20035;-74
2022/02/05 03:51:40;;;;;;;2.97;1.47;;;3.40;99.90;;;;;;4976943;28;20117;-74
2022/02/05 03:54:05;;;;;;;2.63;1.50;;;3.40;99.90;;;;;;4959389;28;20063;-78
2022/02/05 03:56:31;;;;;;;2.90;1.40;;;3.40;99.90;;;;;;4959286;28;20432;-74
2022/02/05 03:58:57;;;;;;;2.43;1.40;;;3.40;99.90;;;;;;4976510;28;20399;-74
2022/02/05 04:01:22;;;;;;;1.50;1.07;;;3.30;99.90;;;;;;4976506;28;20023;-74
2022/02/05 04:03:48;;;;;;;4.73;1.43;;;3.40;99.90;;;;;;4959651;28;20059;-74
2022/02/05 04:06:13;;;;;;;3.93;1.40;;;3.40;99.90;;;;;;4976621;28;20368;-74
2022/02/05 04:08:39;;;;;;;2.80;1.37;;;3.40;99.90;;;;;;4959603;28;20503;-74
2022/02/05 04:11:10;;;;;;;8.70;1.43;;;3.40;99.90;;;;;;4959344;28;20080;-73
2022/02/05 04:16:23;;;;;;;3.27;1.43;;;3.40;99.90;;;;;;4976532;28;20084;-74
2022/02/05 04:18:51;;;;;;;4.70;1.20;;;3.30;99.90;;;;;;4959704;28;20138;-73
2022/02/05 04:21:17;;;;;;;3.70;1.13;;;3.40;99.90;;;;;;4976134;28;20436;-74
2022/02/05 04:23:43;;;;;;;3.23;1.60;;;3.40;99.90;;;;;;4959382;28;20117;-74
2022/02/05 04:26:08;;;;;;;4.07;1.13;;;3.40;99.90;;;;;;4958942;28;20482;-77
2022/02/05 04:28:35;;;;;;;2.23;1.20;;;3.40;99.90;;;;;;4959454;28;20055;-74
2022/02/05 04:31:01;;;;;;;4.63;1.50;;;3.40;99.90;;;;;;4959151;28;20411;-73
2022/02/05 04:33:27;;;;;;;2.73;1.10;;;3.40;99.90;;;;;;4958429;28;20061;-74
2022/02/05 04:35:52;;;;;;;3.63;1.20;;;3.50;99.90;;;;;;4958711;28;20117;-73
2022/02/05 04:38:20;;;;;;;5.00;1.20;;;3.50;99.90;;;;;;4958062;28;20070;-74
2022/02/05 04:40:54;;;;;;;4.60;1.40;;;3.50;99.90;;;;;;4975953;28;20027;-74
2022/02/05 04:43:48;;;;;;;4.33;1.00;;;3.50;99.90;;;;;;4958325;28;20408;-74
2022/02/05 04:56:42;;;;;;;2.60;0.90;;;3.70;99.90;;;;;;4975456;28;20560;-73
2022/02/05 05:04:20;;;;;;;3.57;1.10;;;3.80;99.90;;;;;;4975620;28;20061;-74
2022/02/05 05:19:29;;;;;;;5.53;1.20;;;3.80;99.90;;;;;;4975188;28;20046;-75
2022/02/05 05:21:57;;;;;;;4.17;1.03;;;3.80;99.90;;;;;;4958053;28;20034;-73
2022/02/05 05:24:23;;;;;;;4.97;1.50;;;3.80;99.90;;;;;;4957899;28;20038;-74
2022/02/05 05:26:49;;;;;;;3.77;1.17;;;3.80;99.90;;;;;;4974252;28;20473;-74
2022/02/05 05:29:15;;;;;;;4.57;1.10;;;3.70;99.90;;;;;;4957868;28;20468;-74
2022/02/05 05:31:40;;;;;;;3.07;1.20;;;3.70;99.90;;;;;;4957819;28;20031;-74
2022/02/05 05:34:06;;;;;;;4.07;1.10;;;3.70;99.90;;;;;;4958193;28;20034;-73
2022/02/05 05:36:32;;;;;;;6.93;1.10;;;3.60;99.90;;;;;;4957680;28;20029;-73
2022/02/05 05:39:01;;;;;;;5.13;1.27;;;3.60;99.90;;;;;;4957679;28;20381;-74
2022/02/05 05:41:28;;;;;;;3.70;1.10;;;3.60;99.90;;;;;;4957058;28;20053;-74
2022/02/05 05:49:15;;;;;;;4.90;1.10;;;3.50;99.90;;;;;;4975113;28;20123;-74
2022/02/05 05:51:41;;;;;;;1.57;1.00;;;3.50;99.90;;;;;;4958252;28;20069;-74
2022/02/05 05:54:07;;;;;;;2.60;0.90;;;3.50;99.90;;;;;;4957650;28;20035;-73
2022/02/05 05:56:34;;;;;;;5.07;1.27;;;3.50;99.90;;;;;;4957093;28;20027;-74
2022/02/05 05:59:01;;;;;;;2.37;0.90;;;3.50;99.90;;;;;;4957730;28;20035;-74
2022/02/05 06:01:27;;;;;;;4.13;0.90;;;3.40;99.90;;;;;;4957080;28;20026;-74
2022/02/05 06:03:52;;;;;;;2.77;1.23;;;3.40;99.90;;;;;;4953941;29;20051;-74
2022/02/05 06:06:18;;;;;;;4.10;1.10;;;3.40;99.90;;;;;;4953960;29;20027;-74
2022/02/05 06:08:44;;;;;;;2.37;1.10;;;3.40;99.90;;;;;;4953745;29;20097;-74
2022/02/05 06:11:09;;;;;;;3.43;1.00;;;3.50;99.90;;;;;;4953906;29;20524;-74
2022/02/05 06:13:36;;;;;;;3.17;0.90;;;3.50;99.90;;;;;;4952918;29;20182;-74
2022/02/05 06:16:06;;;;;;;4.00;1.10;;;3.50;99.90;;;;;;4953849;29;20035;-73
2022/02/05 06:18:32;;;;;;;2.70;1.17;;;3.50;99.90;;;;;;4954915;28;20030;-74
2022/02/05 06:20:57;;;;;;;4.83;1.10;;;3.50;99.90;;;;;;4954058;29;20130;-73
2022/02/05 06:23:23;;;;;;;2.57;1.00;;;3.40;99.90;;;;;;4953196;29;20441;-74
2022/02/05 06:25:49;;;;;;;2.80;0.90;;;3.50;99.90;;;;;;4954650;29;20050;-74
2022/02/05 06:28:15;;;;;;;3.07;0.80;;;3.50;99.90;;;;;;4953692;29;20034;-78
2022/02/05 06:30:42;;;;;;;3.47;1.90;;;3.50;99.90;;;;;;4953400;29;20511;-74
2022/02/05 06:33:07;;;;;;;5.07;1.00;;;3.50;99.90;;;;;;4969936;28;20034;-74
2022/02/05 06:35:33;;;;;;;3.77;0.93;;;3.50;99.90;;;;;;4953209;29;20031;-73
2022/02/05 06:38:00;;;;;;;3.10;1.00;;;3.50;99.90;;;;;;4955369;29;20460;-73
2022/02/05 06:40:26;;;;;;;2.63;1.10;;;3.40;99.90;;;;;;4953477;29;20039;-73
2022/02/05 06:42:52;;;;;;;6.07;1.10;;;3.40;99.90;;;;;;4953769;29;20038;-74
2022/02/05 06:45:18;;;;;;;4.37;1.10;;;3.40;99.90;;;;;;4953399;29;20031;-76
2022/02/05 06:47:44;;;;;;;5.00;1.00;;;3.40;99.90;;;;;;4953411;29;20034;-74
2022/02/05 06:50:10;;;;;;;5.43;1.40;;;3.30;99.90;;;;;;4953486;29;20499;-74
2022/02/05 06:52:36;;;;;;;3.43;1.20;;;3.30;99.90;;;;;;4952961;29;20448;-73
2022/02/05 06:55:03;;;;;;;3.07;1.40;;;3.30;99.90;;;;;;4953465;29;20038;-73
2022/02/05 06:57:28;;;;;;;3.47;1.13;;;3.30;99.90;;;;;;4952344;29;20468;-73
2022/02/05 06:59:54;;;;;;;4.20;1.17;;;3.30;99.90;;;;;;4953428;29;20059;-73
2022/02/05 07:02:20;;;;;;;4.47;1.30;;;3.20;99.90;;;;;;4958076;28;20103;-76
2022/02/05 07:04:47;;;;;;;1.70;0.80;;;3.30;99.90;;;;;;4956908;28;20031;-74
2022/02/05 07:07:13;;;;;;;2.27;1.43;;;3.30;99.90;;;;;;4956464;28;20027;-73
2022/02/05 07:09:39;;;;;;;4.43;1.03;;;3.20;99.90;;;;;;4957737;28;20034;-74
2022/02/05 07:12:06;;;;;;;3.17;1.30;;;3.30;99.90;;;;;;4960151;28;20059;-74
2022/02/05 07:14:42;;;;;;;6.13;1.00;;;3.30;99.90;;;;;;4959908;28;20055;-74
2022/02/05 07:17:19;;;;;;;3.33;0.80;;;3.40;99.90;;;;;;4960700;28;20041;-73
2022/02/05 07:20:02;;;;;;;4.97;1.23;;;3.40;99.90;;;;;;4960333;28;20101;-73
2022/02/05 07:22:34;;;;;;;5.90;1.30;;;3.50;99.90;;;;;;4977794;28;20026;-73
2022/02/05 07:30:32;;;;;;;6.50;1.40;;;3.50;99.90;;;;;;4977389;28;20531;-75
2022/02/05 07:32:58;;;;;;;2.90;1.03;;;3.60;99.90;;;;;;4959546;28;20031;-74
2022/02/05 07:35:25;;;;;;;2.00;1.00;;;3.50;99.90;;;;;;4977574;28;20031;-74
2022/02/05 07:37:53;;;;;;;5.83;0.97;;;3.60;99.90;;;;;;4960187;28;20035;-74
2022/02/05 07:40:19;;;;;;;5.57;1.27;;;3.60;99.90;;;;;;4959720;28;20392;-75
2022/02/05 07:42:45;;;;;;;7.77;1.30;;;3.60;99.90;;;;;;4959658;28;20037;-74
2022/02/05 07:45:10;;;;;;;3.33;1.30;;;3.60;99.90;;;;;;4959119;28;20114;-74
2022/02/05 07:47:36;;;;;;;4.93;1.30;;;3.70;99.90;;;;;;4976271;28;20023;-74
2022/02/05 07:50:02;;;;;;;4.43;1.03;;;3.70;99.90;;;;;;4959609;28;20369;-74
2022/02/05 07:52:28;;;;;;;2.93;1.10;;;3.70;99.90;;;;;;4977177;28;20031;-74
2022/02/05 07:54:54;;;;;;;2.33;1.20;;;3.80;99.90;;;;;;4959412;28;20086;-74
2022/02/05 07:57:19;;;;;;;3.93;1.60;;;3.70;99.90;;;;;;4959896;28;20034;-77
2022/02/05 07:59:45;;;;;;;5.57;1.50;;;3.70;99.90;;;;;;4959261;28;20085;-73
2022/02/05 08:02:10;;;;;;;4.40;1.30;;;3.70;99.90;;;;;;4959557;28;20053;-74
2022/02/05 08:04:36;;;;;;;4.43;1.50;;;3.70;99.90;;;;;;4959371;28;20027;-74
2022/02/05 08:07:03;;;;;;;5.83;1.60;;;3.70;99.90;;;;;;4959264;28;20544;-74
2022/02/05 08:09:44;;;;;;;6.67;1.83;;;3.70;99.90;;;;;;4959117;28;20087;-74
2022/02/05 08:12:12;;;;;;;5.33;2.10;;;3.60;99.90;;;;;;4976997;28;20023;-74
2022/02/05 08:14:43;;;;;;;8.33;2.27;;;3.70;99.90;;;;;;4976383;28;20024;-74
2022/02/05 08:17:18;;;;;;;6.43;1.80;;;3.60;99.90;;;;;;4959583;28;20027;-74
2022/02/05 08:19:44;;;;;;;10.07;1.70;;;3.60;99.90;;;;;;4976358;28;20023;-74
2022/02/05 08:22:10;;;;;;;10.07;2.30;;;3.60;99.90;;;;;;4959420;28;20027;-74
2022/02/05 08:24:35;;;;;;;4.97;2.17;;;3.60;99.90;;;;;;4958888;28;20089;-74
2022/02/05 08:27:01;;;;;;;4.80;2.00;;;3.60;99.90;;;;;;4959344;28;20542;-74
2022/02/05 08:29:29;;;;;;;5.77;2.13;;;3.70;99.90;;;;;;4958522;28;20034;-75
2022/02/05 08:31:55;;;;;;;6.50;2.30;;;3.60;99.90;;;;;;4976290;28;20364;-74
2022/02/05 08:34:20;;;;;;;7.33;2.00;;;3.60;99.90;;;;;;4959160;28;20038;-74
2022/02/05 08:36:48;;;;;;;9.47;2.47;;;3.60;99.90;;;;;;4958899;28;20031;-74
2022/02/05 08:39:14;;;;;;;9.90;2.90;;;3.60;99.90;;;;;;4959013;28;20507;-74
2022/02/05 08:41:41;;;;;;;7.37;2.17;;;3.70;99.90;;;;;;4958650;28;20052;-73
2022/02/05 08:44:08;;;;;;;9.40;2.57;;;3.70;99.90;;;;;;4959237;28;20027;-74
2022/02/05 08:46:34;;;;;;;10.33;2.90;;;3.70;99.90;;;;;;4957953;28;20038;-74
2022/02/05 08:49:00;;;;;;;12.47;3.27;;;3.70;99.90;;;;;;4958949;28;20034;-74
2022/02/05 08:51:27;;;;;;;13.87;4.17;;;3.70;99.90;;;;;;4958471;28;20023;-78
2022/02/05 08:53:54;;;;;;;9.13;3.43;;;3.70;99.90;;;;;;4975880;28;20034;-74
2022/02/05 08:56:21;;;;;;;8.60;3.07;;;3.60;99.90;;;;;;4957744;28;20027;-74
2022/02/05 08:58:48;;;;;;;8.37;3.20;;;3.60;99.90;;;;;;4958388;28;20034;-74
2022/02/05 09:01:18;;;;;;;8.30;2.67;;;3.70;99.90;;;;;;4975066;28;20589;-75
2022/02/05 09:03:59;;;;;;;10.87;3.10;;;3.70;99.90;;;;;;4957469;28;20090;-74
2022/02/05 09:06:30;;;;;;;6.43;2.40;;;3.70;99.90;;;;;;4955306;29;20027;-77
2022/02/05 09:11:52;;;;;;;6.13;2.37;;;3.80;99.90;;;;;;4974755;28;20058;-74
2022/02/05 09:14:31;;;;;;;4.80;2.00;;;3.90;99.90;;;;;;4957360;28;20026;-74
2022/02/05 09:16:56;;;;;;;8.30;2.87;;;3.90;99.90;;;;;;4981302;28;20031;-74
2022/02/05 09:19:22;;;;;;;6.10;1.77;;;4.00;99.90;;;;;;4959945;28;20423;-74
2022/02/05 09:21:48;;;;;;;12.30;1.90;;;4.00;99.90;;;;;;4957604;28;20027;-74
2022/02/05 09:24:14;;;;;;;5.73;1.90;;;4.10;99.90;;;;;;4974957;28;20030;-74
2022/02/05 09:26:44;;;;;;;5.93;2.10;;;4.10;99.90;;;;;;4956927;28;20396;-74
2022/02/05 09:29:19;;;;;;;7.30;2.20;;;4.10;99.90;;;;;;4958215;28;20061;-74
2022/02/05 09:31:46;;;;;;;5.63;1.73;;;4.20;99.90;;;;;;4956981;28;20038;-74
2022/02/05 09:34:11;;;;;;;6.67;1.97;;;4.20;99.90;;;;;;4958355;28;20155;-73
2022/02/05 09:36:39;;;;;;;9.33;2.10;;;4.30;99.90;;;;;;4957429;28;20044;-74
2022/02/05 09:39:09;;;;;;;7.17;2.47;;;4.40;99.90;;;;;;4957872;28;20061;-73
2022/02/05 09:41:36;;;;;;;4.90;1.70;;;4.50;99.90;;;;;;4957657;28;20031;-74
2022/02/05 09:44:04;;;;;;;7.10;2.07;;;4.60;99.90;;;;;;4957631;28;20124;-74
2022/02/05 09:46:30;;;;;;;4.77;1.73;;;4.70;99.90;;;;;;4957438;28;20027;-74
2022/02/05 09:48:57;;;;;;;4.97;1.73;;;4.90;99.90;;;;;;4957805;28;20030;-73
2022/02/05 09:51:32;;;;;;;6.70;1.50;;;5.00;99.90;;;;;;4957719;28;20027;-73
2022/02/05 09:54:00;;;;;;;5.67;1.37;;;5.10;99.90;;;;;;4957532;28;20027;-74
2022/02/05 09:56:27;;;;;;;3.73;1.37;;;5.20;99.90;;;;;;4957335;28;20031;-78
2022/02/05 09:58:54;;;;;;;7.57;1.67;;;5.30;99.90;;;;;;4957124;28;20027;-75
2022/02/05 10:01:25;;;;;;;5.67;1.70;;;5.40;99.90;;;;;;4957060;28;20056;-74
2022/02/05 10:03:52;;;;;;;4.25;1.77;;;5.40;99.90;;;;;;4956801;28;20146;-74
2022/02/05 10:06:22;;;;;;;3.00;1.30;;;5.40;99.90;;;;;;4956925;28;20039;-74
2022/02/05 10:08:58;;;;;;;4.93;1.60;;;5.30;99.90;;;;;;4956411;28;20030;-74
2022/02/05 10:11:24;;;;;;;5.60;1.40;;;5.40;99.90;;;;;;4957384;28;20026;-74
2022/02/05 10:13:51;;;;;;;5.53;1.30;;;5.40;99.90;;;;;;4956567;28;20027;-74
2022/02/05 10:16:27;;;;;;;5.30;1.77;;;5.40;99.90;;;;;;4957219;28;20027;-74
2022/02/05 10:18:57;;;;;;;4.70;1.60;;;5.40;99.90;;;;;;4955018;28;20034;-73
2022/02/05 10:21:30;;;;;;;3.40;1.47;;;5.40;99.90;;;;;;4957136;28;20029;-74
2022/02/05 10:24:04;;;;;;;4.53;2.17;;;5.40;99.90;;;;;;4957280;28;20368;-74
2022/02/05 10:26:32;;;;;;;4.57;1.63;;;5.40;99.90;;;;;;4956770;28;20030;-78
2022/02/05 10:29:06;;;;;;;5.23;1.70;;;5.50;99.90;;;;;;4974210;28;20026;-75
2022/02/05 10:31:57;;;;;;;4.83;1.67;;;5.50;99.90;;;;;;4956253;28;20062;-74
2022/02/05 10:34:24;;;;;;;6.27;1.70;;;5.50;99.90;;;;;;4952608;28;20464;-74
2022/02/05 10:37:20;;;;;;;6.17;1.50;;;5.60;99.90;;;;;;4973785;28;20066;-75
2022/02/05 10:45:13;;;;;;;4.00;1.40;;;5.80;99.90;;;;;;4970547;28;20037;-74
2022/02/05 10:47:56;;;;;;;8.60;1.30;;;5.70;99.90;;;;;;4956142;28;20031;-74
2022/02/05 10:50:25;;;;;;;11.30;1.60;;;5.80;99.90;;;;;;4956896;28;20031;-74
2022/02/05 10:52:56;;;;;;;6.07;1.60;;;5.70;99.90;;;;;;4956150;28;20090;-74
2022/02/05 10:55:43;;;;;;;5.68;1.45;;;5.80;99.90;;;;;;4956516;28;20034;-74
2022/02/05 10:58:17;;;;;;;5.70;1.43;;;5.80;99.90;;;;;;4973869;28;20023;-75
2022/02/05 11:05:57;;;;;;;4.37;1.60;;;5.90;99.90;;;;;;4973488;28;20049;-76
2022/02/05 11:08:24;;;;;;;6.97;1.73;;;6.00;99.90;;;;;;4973504;28;20027;-76
2022/02/05 11:19:00;;;;;;;4.67;1.47;;;6.30;99.90;;;;;;4973338;28;20029;-77
2022/02/05 11:21:28;;;;;;;4.00;1.40;;;6.50;99.90;;;;;;4968372;28;20065;-78
2022/02/05 11:24:06;;;;;;;4.63;1.30;;;6.60;99.90;;;;;;4956367;28;20042;-77
2022/02/05 11:26:33;;;;;;;5.37;1.67;;;6.60;99.90;;;;;;4956375;28;20035;-78
2022/02/05 11:29:02;;;;;;;6.10;1.80;;;6.80;99.90;;;;;;4956471;28;20023;-77
2022/02/05 11:31:36;;;;;;;5.73;1.73;;;6.90;99.90;;;;;;4956124;28;20030;-78
2022/02/05 11:34:10;;;;;;;5.93;1.83;;;6.90;99.90;;;;;;4956835;28;20031;-77
2022/02/05 11:36:39;;;;;;;7.07;1.50;;;7.10;99.90;;;;;;4954166;28;20053;-78
2022/02/05 11:39:05;;;;;;;6.47;1.40;;;7.20;99.90;;;;;;4955451;28;20031;-77
2022/02/05 11:41:36;;;;;;;1.80;1.20;;;7.20;99.90;;;;;;4951371;28;20026;-85
2022/02/05 11:44:41;;;;;;;5.87;1.57;;;7.20;99.90;;;;;;4956323;28;20023;-77
2022/02/05 11:47:07;;;;;;;4.37;1.57;;;7.20;99.90;;;;;;4969663;28;20094;-75
2022/02/05 11:49:55;;;;;;;9.37;1.47;;;7.30;99.90;;;;;;4956092;28;20038;-80
2022/02/05 11:52:36;;;;;;;5.00;1.53;;;7.30;99.90;;;;;;4973195;28;20023;-77
2022/02/05 11:55:23;;;;;;;5.60;1.80;;;7.30;99.70;;;;;;4938839;29;20029;-77
2022/02/05 11:57:53;;;;;;;9.97;1.50;;;7.30;99.50;;;;;;4957045;28;20098;-77
2022/02/05 12:00:23;;;;;;;7.10;1.40;;;7.40;99.40;;;;;;4959686;28;20041;-76
2022/02/05 12:03:03;;;;;;;7.70;2.27;;;7.30;99.90;;;;;;4959091;28;20459;-76
2022/02/05 12:05:37;;;;;;;5.77;1.60;;;7.30;99.70;;;;;;4959703;28;20372;-77
2022/02/05 12:08:06;;;;;;;6.67;1.47;;;7.30;99.90;;;;;;4960064;28;20121;-76
2022/02/05 12:10:31;;;;;;;8.80;1.57;;;7.30;99.30;;;;;;4959647;28;20471;-79
2022/02/05 12:13:38;;;;;;;5.37;1.60;;;7.20;99.40;;;;;;4959183;28;20027;-76
2022/02/05 12:16:08;;;;;;;7.53;1.70;;;7.30;99.60;;;;;;4920214;29;20477;-76
2022/02/05 12:19:19;;;;;;;8.60;2.33;;;7.40;99.80;;;;;;4956421;28;20057;-78
2022/02/05 12:22:03;;;;;;;8.13;1.47;;;7.40;99.20;;;;;;4950464;28;20053;-75
2022/02/05 12:25:05;;;;;;;3.60;1.10;;;7.50;99.10;;;;;;4959436;28;20170;-75
2022/02/05 12:27:33;;;;;;;5.17;1.30;;;7.80;98.70;;;;;;4958823;28;20464;-76
2022/02/05 12:30:38;;;;;;;4.93;1.30;;;8.00;98.00;;;;;;4975180;28;20047;-76
2022/02/05 12:33:05;;;;;;;7.23;1.60;;;8.10;97.20;;;;;;4933472;29;20032;-75
2022/02/05 12:35:33;;;;;;;5.88;1.20;;;8.40;97.30;;;;;;4961088;28;20093;-78
2022/02/05 12:38:04;;;;;;;5.00;1.50;;;8.50;96.40;;;;;;4975845;28;20038;-79
2022/02/05 12:40:30;;;;;;;6.45;1.38;;;8.60;96.80;;;;;;4976392;28;20043;-76
2022/02/05 12:42:58;;;;;;;3.58;1.40;;;8.80;96.20;;;;;;4958791;28;20042;-77
2022/02/05 12:46:05;;;;;;;9.15;1.30;;;8.90;94.80;;;;;;4976354;28;20368;-77
2022/02/05 12:48:30;;;;;;;8.07;1.30;;;9.00;93.70;;;;;;4959173;28;20039;-78
2022/02/05 12:50:58;;;;;;;4.35;1.10;;;8.90;94.00;;;;;;4976020;28;20093;-78
2022/02/05 12:53:31;;;;;;;8.43;1.30;;;8.90;94.30;;;;;;4977217;28;20027;-78
2022/02/05 12:56:13;;;;;;;4.70;1.30;;;8.80;93.70;;;;;;4958330;28;20141;-79
2022/02/05 12:58:51;;;;;;;3.88;1.52;;;9.10;93.30;;;;;;4960978;28;20035;-80
2022/02/05 13:01:17;;;;;;;4.40;1.10;;;9.30;92.30;;;;;;4964079;28;20035;-79
2022/02/05 13:03:42;;;;;;;6.15;1.02;;;9.40;92.30;;;;;;4959922;28;20055;-80
2022/02/05 13:06:21;;;;;;;5.68;1.10;;;9.60;92.10;;;;;;4961966;28;20122;-80
2022/02/05 13:08:50;;;;;;;4.78;1.30;;;10.00;90.40;;;;;;4942740;29;20035;-77
2022/02/05 13:11:21;;;;;;;9.45;1.13;;;10.10;88.60;;;;;;4942811;29;20035;-79
2022/02/05 13:13:53;;;;;;;3.05;0.98;;;9.90;90.30;;;;;;4958246;28;20031;-77
2022/02/05 13:16:24;;;;;;;4.63;0.95;;;10.20;88.20;;;;;;4979516;28;20023;-78
2022/02/05 13:19:16;;;;;;;4.53;0.90;;;10.60;83.80;;;;;;4960336;28;20026;-79
2022/02/05 13:25:00;;;;;;;4.18;1.30;;;10.70;83.10;;;;;;4956310;29;20058;-78
2022/02/05 13:36:28;;;;;;;6.95;1.60;;;8.70;94.10;;;;;;4975728;28;20041;-82
2022/02/05 13:41:36;;;;;;;4.70;1.40;;;8.70;94.90;;;;;;4975956;28;20034;-86
2022/02/05 13:44:01;;;;;;;4.20;1.00;;;8.60;94.20;;;;;;4959743;28;20089;-79
2022/02/05 13:46:27;;;;;;;6.20;1.92;;;8.70;94.50;;;;;;4958405;28;20472;-77
2022/02/05 13:48:53;;;;;;;4.50;1.10;;;8.80;94.10;;;;;;4957295;28;20054;-77
2022/02/05 13:51:19;;;;;;;7.10;1.60;;;8.90;93.20;;;;;;4957150;28;20464;-78
2022/02/05 13:53:52;;;;;;;5.07;1.20;;;8.90;94.20;;;;;;4956812;28;20054;-78
2022/02/05 13:56:19;;;;;;;6.95;1.33;;;8.80;94.00;;;;;;4957659;28;20027;-78
2022/02/05 13:58:45;;;;;;;4.18;0.95;;;8.70;93.60;;;;;;4957030;28;20027;-78
2022/02/05 14:01:33;;;;;;;6.65;1.20;;;8.70;93.90;;;;;;4957492;28;20537;-78
2022/02/05 14:04:12;;;;;;;4.43;1.30;;;8.60;93.80;;;;;;4952654;29;20480;-77
2022/02/05 14:06:54;;;;;;;6.35;2.20;;;8.60;94.20;;;;;;4954460;28;20023;-78
2022/02/05 14:09:39;;;;;;;7.00;1.60;;;8.70;94.10;;;;;;4944820;29;20078;-80
2022/02/05 14:12:21;;;;;;;4.55;1.20;;;8.60;93.70;;;;;;4947828;29;20019;-80
2022/02/05 14:15:04;;;;;;;3.92;1.10;;;8.40;94.00;;;;;;4963725;28;20034;-81
2022/02/05 14:17:30;;;;;;;7.47;1.23;;;8.40;94.70;;;;;;4953142;28;20034;-80
2022/02/05 14:20:10;;;;;;;3.15;1.30;;;8.50;94.40;;;;;;4953488;28;20472;-80
2022/02/05 14:22:38;;;;;;;6.65;1.02;;;8.50;94.30;;;;;;4954295;28;20038;-80
2022/02/05 14:25:14;;;;;;;6.75;1.08;;;8.50;94.00;;;;;;4953809;28;20047;-80
2022/02/05 14:28:02;;;;;;;3.42;1.00;;;8.40;94.00;;;;;;4948556;29;20038;-79
2022/02/05 14:30:29;;;;;;;5.78;1.10;;;8.30;94.20;;;;;;4952089;29;20027;-79
2022/02/05 14:32:57;;;;;;;4.38;1.10;;;8.20;94.80;;;;;;4953050;28;20031;-79
2022/02/05 14:40:48;;;;;;;5.25;1.13;;;8.10;95.20;;;;;;4952810;29;20095;-80
2022/02/05 14:43:17;;;;;;;5.88;1.33;;;8.10;95.30;;;;;;4953596;28;20054;-80
2022/02/05 14:45:45;;;;;;;3.38;1.25;;;8.10;95.40;;;;;;4953121;28;20027;-79
2022/02/05 14:48:14;;;;;;;6.30;1.40;;;8.10;95.90;;;;;;4939287;29;20024;-78
2022/02/05 14:50:40;;;;;;;5.60;1.50;;;8.00;96.20;;;;;;4969516;28;20031;-81
2022/02/05 14:53:08;;;;;;;6.35;1.75;;;8.10;96.50;;;;;;4953794;28;20035;-77
2022/02/05 14:55:34;;;;;;;7.82;1.13;;;8.10;96.50;;;;;;4953616;28;20038;-79
2022/02/05 14:58:00;;;;;;;4.18;1.25;;;8.10;96.90;;;;;;4969514;28;20047;-78
2022/02/05 15:00:25;;;;;;;5.28;1.10;;;8.10;96.60;;;;;;4954831;28;20074;-78
2022/02/05 15:02:51;;;;;;;5.63;1.48;;;8.10;96.50;;;;;;4960694;28;20460;-79
2022/02/05 15:05:17;;;;;;;5.13;1.27;;;8.10;96.60;;;;;;4957159;28;20122;-78
2022/02/05 15:07:44;;;;;;;3.58;0.90;;;8.20;96.00;;;;;;4956401;28;20058;-80
2022/02/05 15:10:14;;;;;;;5.85;1.08;;;8.20;96.50;;;;;;4957205;28;20089;-77
2022/02/05 15:12:41;;;;;;;4.72;0.90;;;8.20;96.10;;;;;;4956023;28;20468;-79
2022/02/05 15:15:13;;;;;;;4.90;0.63;;;8.20;96.20;;;;;;4973794;28;20034;-78
2022/02/05 15:17:42;;;;;;;7.22;1.20;;;8.20;96.00;;;;;;4956338;28;20030;-80
2022/02/05 15:20:13;;;;;;;5.55;0.80;;;8.20;96.20;;;;;;4956325;28;20126;-78
2022/02/05 15:22:40;;;;;;;7.10;1.20;;;8.20;96.10;;;;;;4956284;28;20023;-81
2022/02/05 15:25:06;;;;;;;3.53;0.82;;;8.20;96.30;;;;;;4956027;28;20035;-78
2022/02/05 15:27:32;;;;;;;4.15;0.77;;;8.20;96.40;;;;;;4973911;28;20054;-77
2022/02/05 15:29:58;;;;;;;3.65;0.85;;;8.20;96.50;;;;;;4956957;28;20031;-77
2022/02/05 15:32:23;;;;;;;3.65;0.90;;;8.20;96.60;;;;;;4977450;28;20035;-77
2022/02/05 15:34:49;;;;;;;7.88;0.90;;;8.20;96.90;;;;;;4959698;28;20480;-77
2022/02/05 15:37:19;;;;;;;6.50;0.82;;;8.10;97.10;;;;;;4960294;28;20353;-76
2022/02/05 15:45:01;;;;;;;3.28;1.08;;;8.00;97.50;;;;;;4976900;28;20077;-77
2022/02/05 15:47:27;;;;;;;4.68;1.23;;;8.00;97.70;;;;;;4960164;28;20066;-77
2022/02/05 15:49:52;;;;;;;4.18;0.80;;;8.00;97.70;;;;;;4959701;28;20027;-77
2022/02/05 15:52:18;;;;;;;3.70;0.90;;;8.00;98.20;;;;;;4960163;28;20114;-76
2022/02/05 15:54:44;;;;;;;3.05;0.75;;;8.00;97.90;;;;;;4959611;28;20027;-77
2022/02/05 16:02:11;;;;;;;2.58;0.60;;;8.00;97.00;;;;;;4977313;28;20042;-76
2022/02/05 16:04:36;;;;;;;4.15;0.73;;;7.90;97.00;;;;;;4959850;28;20054;-77
2022/02/05 16:07:02;;;;;;;5.55;0.82;;;7.90;97.00;;;;;;4959050;28;20126;-77
2022/02/05 16:09:28;;;;;;;4.95;0.98;;;7.90;97.10;;;;;;4959968;28;20034;-77